Latest Weather Observations for West Roebuck

IDW60801

Issued at 10:03 pm WST Wednesday 31 August 2016 (issued every 30 minutes, with the page automatically refreshed every 10 minutes)

About weather observations | Map of weather stations | Latest weather observations for WA | Other Formats
Station Details ID: 003096 Name: WEST ROEBUCK Lat: -17.90 Lon: 122.31 Height: 32.0 m
Data from the previous 72 hours. | See also: Recent months at West Roebuck
Date/Time
WST
Temp
°C
App
Temp
°C
Dew
Point
°C
Rel
Hum
%
Delta-T
°C
Wind Press
QNH
hPa
Press
MSL
hPa
Rain since
9am
mm
Dir  Spd
km/h
Gust
km/h
Spd
kts
Gust
kts
31/10:00pm 22.1 - - - - SW 7 9 4 5 - - 0.0
31/09:30pm 22.2 - - - - WSW 7 9 4 5 - - 0.0
31/09:00pm 22.4 - - - - WSW 7 9 4 5 - - 0.0
31/08:30pm 22.6 - - - - WSW 7 11 4 6 - - 0.0
31/08:00pm 22.7 - - - - WSW 7 11 4 6 - - 0.0
31/07:30pm 22.8 - - - - WSW 9 13 5 7 - - 0.0
31/07:00pm 23.1 - - - - WSW 7 9 4 5 - - 0.0
31/06:30pm 23.8 - - - - WNW 7 9 4 5 - - 0.0
31/06:00pm 24.9 - - - - NW 7 11 4 6 - - 0.0
31/05:30pm 25.9 - - - - WNW 9 15 5 8 - - 0.0
31/05:00pm 27.2 - - - - WNW 13 17 7 9 - - 0.0
31/04:30pm 27.9 - - - - W 13 20 7 11 - - 0.0
31/04:00pm 28.3 - - - - WNW 13 20 7 11 - - 0.0
31/03:30pm 28.7 - - - - W 15 19 8 10 - - 0.0
31/03:00pm 28.7 - - - - SW 15 22 8 12 - - 0.0
31/02:30pm 28.4 - - - - SW 17 24 9 13 - - 0.0
31/02:00pm 28.4 - - - - SW 17 24 9 13 - - 0.0
31/01:30pm 29.1 - - - - WSW 17 24 9 13 - - 0.0
31/01:00pm 29.2 - - - - SSW 13 22 7 12 - - 0.0
31/12:30pm 28.7 - - - - SSW 15 24 8 13 - - 0.0
31/12:00pm 27.8 - - - - SW 15 22 8 12 - - 0.0
31/11:30am 27.7 - - - - SSW 11 19 6 10 - - 0.0
31/11:00am 28.2 - - - - SSW 11 19 6 10 - - 0.0
31/10:30am 27.5 - - - - SW 7 11 4 6 - - 0.0
31/10:00am 27.9 - - - - E 6 9 3 5 - - 0.0
31/09:30am 27.0 - - - - SE 7 11 4 6 - - 0.0
31/09:00am 25.3 - - - - SSE 6 9 3 5 - - 0.0
31/08:30am 23.9 - - - - E 6 9 3 5 - - 0.0
31/08:00am 23.1 - - - - ESE 9 11 5 6 - - 0.0
31/07:30am 22.2 - - - - ESE 6 9 3 5 - - 0.0
31/07:00am 21.6 - - - - ESE 6 9 3 5 - - 0.0
31/06:30am 21.3 - - - - E 6 7 3 4 - - 0.0
31/06:00am 21.0 - - - - ESE 6 9 3 5 - - 0.0
31/05:30am 21.0 - - - - SSE 7 9 4 5 - - 0.0
31/05:00am 21.1 - - - - CALM 0 6 0 3 - - 0.0
31/04:30am 21.0 - - - - SSE 6 7 3 4 - - 0.0
31/04:00am 21.1 - - - - S 6 7 3 4 - - 0.0
31/03:30am 21.3 - - - - ESE 2 6 1 3 - - 0.0
31/03:00am 21.4 - - - - CALM 0 0 0 0 - - 0.0
31/02:30am 21.4 - - - - CALM 0 0 0 0 - - 0.0
31/02:00am 21.5 - - - - CALM 0 0 0 0 - - 0.0
31/01:30am 21.7 - - - - NNE 6 9 3 5 - - 0.0
31/01:00am 21.5 - - - - NNE 6 9 3 5 - - 0.0
31/12:30am 21.3 - - - - NNE 7 11 4 6 - - 0.0
31/12:00am 21.4 - - - - NNE 7 11 4 6 - - 0.0
 
Date/Time
WST
Temp
°C
App
Temp
°C
Dew
Point
°C
Rel
Hum
%
Delta-T
°C
Wind Press
QNH
hPa
Press
MSL
hPa
Rain since
9am
mm
Dir  Spd
km/h
Gust
km/h
Spd
kts
Gust
kts
30/11:30pm 21.4 - - - - N 7 9 4 5 - - 0.0
30/11:00pm 21.3 - - - - NNE 6 9 3 5 - - 0.0
30/10:30pm 21.0 - - - - NNE 7 9 4 5 - - 0.0
30/10:00pm 20.7 - - - - NNE 9 11 5 6 - - 0.0
30/09:30pm 20.6 - - - - NE 6 9 3 5 - - 0.0
30/09:00pm 20.7 - - - - NE 7 11 4 6 - - 0.0
30/08:30pm 20.6 - - - - NNE 7 9 4 5 - - 0.0
30/08:00pm 20.8 - - - - NE 7 9 4 5 - - 0.0
30/07:30pm 21.0 - - - - NNE 7 9 4 5 - - 0.0
30/07:00pm 21.3 - - - - NE 7 9 4 5 - - 0.0
30/06:30pm 21.2 - - - - ENE 7 11 4 6 - - 0.0
30/06:00pm 21.4 - - - - E 6 7 3 4 - - 0.0
30/05:30pm 21.5 - - - - E 9 13 5 7 - - 0.0
30/05:00pm 21.4 - - - - E 9 13 5 7 - - 0.0
30/04:30pm 21.4 - - - - ESE 9 13 5 7 - - 0.0
30/04:00pm 21.1 - - - - SE 7 9 4 5 - - 0.0
30/03:30pm 21.3 - - - - S 6 9 3 5 - - 0.0
30/03:00pm 21.4 - - - - S 6 9 3 5 - - 0.0
30/02:30pm 21.3 - - - - S 9 13 5 7 - - 0.0
30/02:00pm 21.3 - - - - SSW 7 11 4 6 - - 0.0
30/01:30pm 21.8 - - - - SSW 11 17 6 9 - - 0.0
30/01:00pm 24.5 - - - - ENE 2 9 1 5 - - 0.0
30/12:30pm 25.5 - - - - SE 2 7 1 4 - - 0.0
30/12:00pm 25.3 - - - - ENE 9 15 5 8 - - 0.0
30/11:30am 25.0 - - - - SE 11 17 6 9 - - 0.0
30/11:00am 24.7 - - - - SE 11 17 6 9 - - 0.0
30/10:30am 24.6 - - - - SSW 6 15 3 8 - - 0.0
30/10:00am 23.7 - - - - ENE 4 9 2 5 - - 0.0
30/09:30am 23.0 - - - - SSE 6 9 3 5 - - 0.0
30/09:00am 22.4 - - - - SSE 4 7 2 4 - - 0.0
30/08:30am 21.6 - - - - ESE 6 9 3 5 - - 0.0
30/08:00am 20.9 - - - - NE 6 9 3 5 - - 0.0
30/07:30am 20.4 - - - - NE 7 9 4 5 - - 0.0
30/07:00am 19.7 - - - - CALM 0 6 0 3 - - 0.0
30/06:30am 19.5 - - - - ENE 6 9 3 5 - - 0.0
30/06:00am 19.5 - - - - CALM 0 0 0 0 - - 0.0
30/05:30am 19.5 - - - - NNE 6 9 3 5 - - 0.0
30/05:00am 19.5 - - - - CALM 0 4 0 2 - - 0.0
30/04:30am 19.6 - - - - SSW 2 9 1 5 - - 0.0
30/04:00am 19.5 - - - - SSW 2 7 1 4 - - 0.0
30/03:30am 19.3 - - - - S 6 9 3 5 - - 0.0
30/03:00am 19.0 - - - - SSW 6 7 3 4 - - 0.0
30/02:30am 18.8 - - - - S 7 11 4 6 - - 0.0
30/02:00am 18.4 - - - - SSW 9 13 5 7 - - 0.0
30/01:30am 20.5 - - - - NNW 2 6 1 3 - - 0.0
30/01:00am 20.5 - - - - NNW 4 7 2 4 - - 0.0
30/12:30am 20.6 - - - - CALM 0 0 0 0 - - 0.0
30/12:00am 20.4 - - - - N 6 9 3 5 - - 0.0
 
Date/Time
WST
Temp
°C
App
Temp
°C
Dew
Point
°C
Rel
Hum
%
Delta-T
°C
Wind Press
QNH
hPa
Press
MSL
hPa
Rain since
9am
mm
Dir  Spd
km/h
Gust
km/h
Spd
kts
Gust
kts
29/11:30pm 20.6 - - - - N 7 11 4 6 - - 0.0
29/11:00pm 20.8 - - - - N 6 9 3 5 - - 0.0
29/10:30pm 20.9 - - - - N 7 11 4 6 - - 0.0
29/10:00pm 21.0 - - - - N 7 9 4 5 - - 0.0
29/09:30pm 21.1 - - - - NNW 7 11 4 6 - - 0.0
29/09:00pm 21.3 - - - - WNW 7 9 4 5 - - 0.0
29/08:30pm 21.2 - - - - NW 6 9 3 5 - - 0.0
29/08:00pm 21.1 - - - - NW 7 11 4 6 - - 0.0
29/07:30pm 20.9 - - - - NNW 7 11 4 6 - - 0.0
29/07:00pm 20.8 - - - - NNW 9 11 5 6 - - 0.0
29/06:30pm 20.7 - - - - NNW 11 15 6 8 - - 0.0
29/06:00pm 20.5 - - - - NNW 11 15 6 8 - - 0.0
29/05:30pm 20.4 - - - - NNW 11 17 6 9 - - 0.0
29/05:00pm 20.5 - - - - NNW 13 20 7 11 - - 0.0
29/04:30pm 20.5 - - - - NNW 15 24 8 13 - - 0.0
29/04:00pm 20.6 - - - - NNW 17 26 9 14 - - 0.0
29/03:30pm 20.9 - - - - NNW 15 28 8 15 - - 0.0
29/03:00pm 21.5 - - - - NNW 11 20 6 11 - - 0.0
29/02:30pm 21.5 - - - - N 9 13 5 7 - - 0.0
29/02:00pm 21.5 - - - - NNW 7 11 4 6 - - 0.0
29/01:30pm 20.9 - - - - WSW 6 9 3 5 - - 0.0
29/01:00pm 21.2 - - - - S 4 11 2 6 - - 0.0
29/12:30pm 21.4 - - - - SSW 9 13 5 7 - - 0.0
29/12:00pm 21.3 - - - - SSE 7 13 4 7 - - 0.0
29/11:30am 21.4 - - - - SSE 9 13 5 7 - - 0.0
29/11:00am 21.5 - - - - SSE 13 19 7 10 - - 0.0
29/10:30am 21.4 - - - - SE 17 20 9 11 - - 0.0
29/10:00am 21.4 - - - - SSE 17 24 9 13 - - 0.0
29/09:30am 21.2 - - - - S 19 28 10 15 - - 0.0
29/09:00am 22.3 - - - - SW 17 28 9 15 - - 0.0
29/08:30am 25.0 - - - - NNW 6 9 3 5 - - 0.0
29/08:00am 24.2 - - - - WSW 6 9 3 5 - - 0.0
29/07:30am 23.2 - - - - WSW 6 6 3 3 - - 0.0
29/07:00am 22.8 - - - - SW 7 13 4 7 - - 0.0
29/06:30am 22.5 - - - - NNE 6 9 3 5 - - 0.0
29/06:00am 22.6 - - - - NNE 9 9 5 5 - - 0.0
29/05:30am 22.5 - - - - NNW 7 9 4 5 - - 0.0
29/05:00am 22.4 - - - - N 7 9 4 5 - - 0.0
29/04:30am 22.5 - - - - N 7 9 4 5 - - 0.0
29/04:00am 22.5 - - - - CALM 0 2 0 1 - - 0.0
29/03:30am 22.5 - - - - CALM 0 0 0 0 - - 0.0
29/03:00am 22.5 - - - - CALM 0 0 0 0 - - 0.0
29/02:30am 22.4 - - - - CALM 0 0 0 0 - - 0.0
29/02:00am 22.4 - - - - CALM 0 0 0 0 - - 0.0
29/01:30am 22.3 - - - - CALM 0 0 0 0 - - 0.0
29/01:00am 22.2 - - - - W 2 6 1 3 - - 0.0
29/12:30am 22.2 - - - - W 7 7 4 4 - - 0.0
29/12:00am 22.1 - - - - NNW 6 7 3 4 - - 0.0
 
Date/Time
WST
Temp
°C
App
Temp
°C
Dew
Point
°C
Rel
Hum
%
Delta-T
°C
Wind Press
QNH
hPa
Press
MSL
hPa
Rain since
9am
mm
Dir  Spd
km/h
Gust
km/h
Spd
kts
Gust
kts
28/11:30pm 21.9 - - - - NNW 7 9 4 5 - - 0.0
28/11:00pm 21.7 - - - - NW 7 9 4 5 - - 0.0
28/10:30pm 21.7 - - - - NNW 7 9 4 5 - - 0.0

Other Formats:

Comma delimited format used in spreadsheet applications
http://www.bom.gov.au/fwo/IDW60801/IDW60801.95204.axf

JavaScript Object Notation format (JSON) in row-major order
http://www.bom.gov.au/fwo/IDW60801/IDW60801.95204.json